PROFILE

 METAR AND TAF INFORMATION
ADDS - METARS form results

(0609 UTC 19 July 2019)
http://aviationweather.gov/metar/data/
 
FMCZ 190600Z AUTO 21007KT 9999 FEW024 27/22 Q1018 BECMG 14010KT
FMCZ 190530Z AUTO 21006KT CAVOK 26/22 Q1018 BECMG 14010KT
TAF FMCZ 182300Z 1900/1924 27005KT 9999 SCT042 BECMG 1905/1907 14010KT 

 AIRPORT MAP

 RUNWAY INFORMATION
Runway 16 Runway length 6330 ft Runway width 92 ft
Runway elevation 10 ft Runway displaced threshold 250 ft Runway heading 150
Runway 34 Runway length 6330 ft Runway width 92 ft
Runway elevation 23 ft Runway displaced threshold 0 ft Runway heading 330

 AIRPORT FREQUENCIES
Type AFIS Name AFIS Frequency 119.2 MHZ

 AIRPORT NEAR NAVIGATION AIDS
Type VOR-DME Name Dzaoudzi Pamandzi Frequency 113500 KHZ
Type NDB Name Dzaoudzi Pamandzi Frequency 341 KHZ